sensor_id;sensor_type;location;lat;lon;timestamp;P1;durP1;ratioP1;P2;durP2;ratioP2
56477;SDS011;42382;53.210;5.772;2023-02-28T00:00:20;10.05;;;1.50;;
56477;SDS011;42382;53.210;5.772;2023-02-28T00:02:46;4.80;;;0.80;;
56477;SDS011;42382;53.210;5.772;2023-02-28T00:05:13;9.00;;;2.10;;
56477;SDS011;42382;53.210;5.772;2023-02-28T00:07:41;8.93;;;1.42;;
56477;SDS011;42382;53.210;5.772;2023-02-28T00:10:08;9.90;;;1.65;;
56477;SDS011;42382;53.210;5.772;2023-02-28T00:12:36;10.60;;;1.65;;
56477;SDS011;42382;53.210;5.772;2023-02-28T00:15:05;7.13;;;1.88;;
56477;SDS011;42382;53.210;5.772;2023-02-28T00:17:32;4.18;;;1.20;;
56477;SDS011;42382;53.210;5.772;2023-02-28T00:19:57;10.30;;;2.05;;
56477;SDS011;42382;53.210;5.772;2023-02-28T00:22:34;5.85;;;1.58;;
56477;SDS011;42382;53.210;5.772;2023-02-28T00:25:01;9.10;;;2.05;;
56477;SDS011;42382;53.210;5.772;2023-02-28T00:27:27;6.95;;;1.38;;
56477;SDS011;42382;53.210;5.772;2023-02-28T00:29:52;6.97;;;1.20;;
56477;SDS011;42382;53.210;5.772;2023-02-28T00:32:19;6.97;;;1.33;;
56477;SDS011;42382;53.210;5.772;2023-02-28T00:34:44;4.25;;;1.00;;
56477;SDS011;42382;53.210;5.772;2023-02-28T00:37:10;9.35;;;1.38;;
56477;SDS011;42382;53.210;5.772;2023-02-28T00:39:39;8.00;;;1.60;;
56477;SDS011;42382;53.210;5.772;2023-02-28T00:42:06;6.65;;;1.60;;
56477;SDS011;42382;53.210;5.772;2023-02-28T00:44:32;7.38;;;1.70;;
56477;SDS011;42382;53.210;5.772;2023-02-28T00:46:58;8.63;;;1.42;;
56477;SDS011;42382;53.210;5.772;2023-02-28T00:49:25;6.47;;;1.65;;
56477;SDS011;42382;53.210;5.772;2023-02-28T00:51:51;9.80;;;1.50;;
56477;SDS011;42382;53.210;5.772;2023-02-28T00:54:18;7.65;;;1.67;;
56477;SDS011;42382;53.210;5.772;2023-02-28T00:56:44;8.85;;;1.90;;
56477;SDS011;42382;53.210;5.772;2023-02-28T00:59:11;7.10;;;1.60;;
56477;SDS011;42382;53.210;5.772;2023-02-28T01:01:37;8.02;;;1.58;;
56477;SDS011;42382;53.210;5.772;2023-02-28T01:04:03;6.75;;;1.30;;
56477;SDS011;42382;53.210;5.772;2023-02-28T01:06:29;6.05;;;1.40;;
56477;SDS011;42382;53.210;5.772;2023-02-28T01:08:55;5.68;;;1.88;;
56477;SDS011;42382;53.210;5.772;2023-02-28T01:11:21;13.93;;;2.85;;
56477;SDS011;42382;53.210;5.772;2023-02-28T01:13:46;11.77;;;2.17;;
56477;SDS011;42382;53.210;5.772;2023-02-28T01:16:12;9.30;;;1.98;;
56477;SDS011;42382;53.210;5.772;2023-02-28T01:18:38;6.28;;;1.33;;
56477;SDS011;42382;53.210;5.772;2023-02-28T01:21:08;7.13;;;1.23;;
56477;SDS011;42382;53.210;5.772;2023-02-28T01:23:35;8.98;;;1.70;;
56477;SDS011;42382;53.210;5.772;2023-02-28T01:26:08;5.60;;;1.45;;
56477;SDS011;42382;53.210;5.772;2023-02-28T01:28:38;5.78;;;1.00;;
56477;SDS011;42382;53.210;5.772;2023-02-28T01:31:03;5.35;;;1.10;;
56477;SDS011;42382;53.210;5.772;2023-02-28T01:33:30;6.35;;;0.88;;
56477;SDS011;42382;53.210;5.772;2023-02-28T01:36:00;8.68;;;1.27;;
56477;SDS011;42382;53.210;5.772;2023-02-28T01:38:34;6.35;;;1.17;;
56477;SDS011;42382;53.210;5.772;2023-02-28T01:41:00;9.23;;;1.48;;
56477;SDS011;42382;53.210;5.772;2023-02-28T01:43:30;5.43;;;1.23;;
56477;SDS011;42382;53.210;5.772;2023-02-28T01:45:58;7.15;;;1.45;;
56477;SDS011;42382;53.210;5.772;2023-02-28T01:48:28;8.65;;;1.35;;
56477;SDS011;42382;53.210;5.772;2023-02-28T01:50:58;10.13;;;1.27;;
56477;SDS011;42382;53.210;5.772;2023-02-28T01:53:32;11.73;;;1.42;;
56477;SDS011;42382;53.210;5.772;2023-02-28T01:56:03;7.70;;;1.48;;
56477;SDS011;42382;53.210;5.772;2023-02-28T01:58:31;6.45;;;1.55;;
56477;SDS011;42382;53.210;5.772;2023-02-28T02:00:57;7.22;;;1.17;;
56477;SDS011;42382;53.210;5.772;2023-02-28T02:03:23;11.38;;;3.28;;
56477;SDS011;42382;53.210;5.772;2023-02-28T02:05:49;9.07;;;1.92;;
56477;SDS011;42382;53.210;5.772;2023-02-28T02:08:21;7.38;;;1.63;;
56477;SDS011;42382;53.210;5.772;2023-02-28T02:10:56;5.55;;;1.63;;
56477;SDS011;42382;53.210;5.772;2023-02-28T02:13:30;7.63;;;1.40;;
56477;SDS011;42382;53.210;5.772;2023-02-28T02:18:58;11.95;;;1.73;;
56477;SDS011;42382;53.210;5.772;2023-02-28T02:30:00;6.90;;;1.30;;
56477;SDS011;42382;53.210;5.772;2023-02-28T02:33:01;5.82;;;1.00;;
56477;SDS011;42382;53.210;5.772;2023-02-28T02:41:58;5.18;;;0.80;;
56477;SDS011;42382;53.210;5.772;2023-02-28T02:44:07;8.63;;;0.82;;
56477;SDS011;42382;53.210;5.772;2023-02-28T02:46:40;6.95;;;0.60;;
56477;SDS011;42382;53.210;5.772;2023-02-28T02:49:09;10.77;;;1.45;;
56477;SDS011;42382;53.210;5.772;2023-02-28T02:51:40;11.13;;;1.08;;
56477;SDS011;42382;53.210;5.772;2023-02-28T02:56:55;4.95;;;0.70;;
56477;SDS011;42382;53.210;5.772;2023-02-28T02:59:24;6.15;;;1.00;;
56477;SDS011;42382;53.210;5.772;2023-02-28T03:01:54;5.75;;;0.65;;
56477;SDS011;42382;53.210;5.772;2023-02-28T03:04:24;3.97;;;0.77;;
56477;SDS011;42382;53.210;5.772;2023-02-28T03:06:52;7.65;;;1.00;;
56477;SDS011;42382;53.210;5.772;2023-02-28T03:09:20;8.77;;;0.65;;
56477;SDS011;42382;53.210;5.772;2023-02-28T03:11:46;9.02;;;1.17;;
56477;SDS011;42382;53.210;5.772;2023-02-28T03:23:01;7.45;;;0.70;;
56477;SDS011;42382;53.210;5.772;2023-02-28T03:25:54;5.35;;;0.90;;
56477;SDS011;42382;53.210;5.772;2023-02-28T03:31:30;4.72;;;0.80;;
56477;SDS011;42382;53.210;5.772;2023-02-28T03:34:13;6.90;;;0.98;;
56477;SDS011;42382;53.210;5.772;2023-02-28T03:36:48;4.35;;;0.70;;
56477;SDS011;42382;53.210;5.772;2023-02-28T03:39:21;7.75;;;0.82;;
56477;SDS011;42382;53.210;5.772;2023-02-28T03:41:52;3.78;;;0.77;;
56477;SDS011;42382;53.210;5.772;2023-02-28T03:44:36;4.00;;;0.55;;
56477;SDS011;42382;53.210;5.772;2023-02-28T03:47:07;6.20;;;0.80;;
56477;SDS011;42382;53.210;5.772;2023-02-28T03:49:44;9.40;;;1.13;;
56477;SDS011;42382;53.210;5.772;2023-02-28T03:52:15;7.90;;;0.85;;
56477;SDS011;42382;53.210;5.772;2023-02-28T03:54:47;3.85;;;0.90;;
56477;SDS011;42382;53.210;5.772;2023-02-28T04:00:19;5.75;;;0.57;;
56477;SDS011;42382;53.210;5.772;2023-02-28T04:02:49;7.93;;;0.90;;
56477;SDS011;42382;53.210;5.772;2023-02-28T04:05:18;7.72;;;1.25;;
56477;SDS011;42382;53.210;5.772;2023-02-28T04:07:47;5.85;;;0.95;;
56477;SDS011;42382;53.210;5.772;2023-02-28T04:10:13;6.53;;;0.73;;
56477;SDS011;42382;53.210;5.772;2023-02-28T04:12:41;12.23;;;1.38;;
56477;SDS011;42382;53.210;5.772;2023-02-28T04:15:07;8.05;;;0.70;;
56477;SDS011;42382;53.210;5.772;2023-02-28T04:17:33;7.95;;;0.75;;
56477;SDS011;42382;53.210;5.772;2023-02-28T04:19:58;8.90;;;1.02;;
56477;SDS011;42382;53.210;5.772;2023-02-28T04:22:24;7.38;;;1.30;;
56477;SDS011;42382;53.210;5.772;2023-02-28T04:24:53;6.35;;;0.77;;
56477;SDS011;42382;53.210;5.772;2023-02-28T04:27:19;9.70;;;0.70;;
56477;SDS011;42382;53.210;5.772;2023-02-28T04:29:46;8.98;;;1.00;;
56477;SDS011;42382;53.210;5.772;2023-02-28T04:32:11;4.75;;;0.60;;
56477;SDS011;42382;53.210;5.772;2023-02-28T04:34:37;8.18;;;0.60;;
56477;SDS011;42382;53.210;5.772;2023-02-28T04:37:04;5.55;;;0.40;;
56477;SDS011;42382;53.210;5.772;2023-02-28T04:39:30;6.43;;;0.70;;
56477;SDS011;42382;53.210;5.772;2023-02-28T04:41:59;7.93;;;0.57;;
56477;SDS011;42382;53.210;5.772;2023-02-28T04:44:25;10.02;;;0.85;;
56477;SDS011;42382;53.210;5.772;2023-02-28T04:46:51;6.90;;;0.60;;
56477;SDS011;42382;53.210;5.772;2023-02-28T04:49:16;8.27;;;0.93;;
56477;SDS011;42382;53.210;5.772;2023-02-28T04:51:42;5.55;;;0.60;;
56477;SDS011;42382;53.210;5.772;2023-02-28T04:54:07;4.32;;;0.50;;
56477;SDS011;42382;53.210;5.772;2023-02-28T04:56:33;4.70;;;0.45;;
56477;SDS011;42382;53.210;5.772;2023-02-28T04:58:59;7.28;;;0.50;;
56477;SDS011;42382;53.210;5.772;2023-02-28T05:01:32;8.13;;;0.57;;
56477;SDS011;42382;53.210;5.772;2023-02-28T05:04:00;9.63;;;0.70;;
56477;SDS011;42382;53.210;5.772;2023-02-28T05:06:28;2.53;;;0.25;;
56477;SDS011;42382;53.210;5.772;2023-02-28T05:08:55;5.28;;;0.30;;
56477;SDS011;42382;53.210;5.772;2023-02-28T05:11:28;6.40;;;0.57;;
56477;SDS011;42382;53.210;5.772;2023-02-28T05:13:59;4.82;;;0.60;;
56477;SDS011;42382;53.210;5.772;2023-02-28T05:16:26;4.82;;;0.50;;
56477;SDS011;42382;53.210;5.772;2023-02-28T05:18:52;4.82;;;0.68;;
56477;SDS011;42382;53.210;5.772;2023-02-28T05:24:17;6.15;;;0.40;;
56477;SDS011;42382;53.210;5.772;2023-02-28T05:26:48;6.32;;;0.50;;
56477;SDS011;42382;53.210;5.772;2023-02-28T05:29:16;4.80;;;0.40;;
56477;SDS011;42382;53.210;5.772;2023-02-28T05:31:42;7.22;;;0.40;;
56477;SDS011;42382;53.210;5.772;2023-02-28T05:34:07;7.45;;;1.02;;
56477;SDS011;42382;53.210;5.772;2023-02-28T05:36:36;7.32;;;0.95;;
56477;SDS011;42382;53.210;5.772;2023-02-28T05:39:02;6.30;;;0.50;;
56477;SDS011;42382;53.210;5.772;2023-02-28T05:41:28;6.50;;;0.82;;
56477;SDS011;42382;53.210;5.772;2023-02-28T05:43:54;6.78;;;0.75;;
56477;SDS011;42382;53.210;5.772;2023-02-28T05:46:19;4.47;;;0.40;;
56477;SDS011;42382;53.210;5.772;2023-02-28T05:48:46;9.70;;;0.65;;
56477;SDS011;42382;53.210;5.772;2023-02-28T05:51:12;6.78;;;0.50;;
56477;SDS011;42382;53.210;5.772;2023-02-28T05:53:38;10.50;;;1.73;;
56477;SDS011;42382;53.210;5.772;2023-02-28T05:56:04;9.70;;;1.45;;
56477;SDS011;42382;53.210;5.772;2023-02-28T05:58:30;6.10;;;0.40;;
56477;SDS011;42382;53.210;5.772;2023-02-28T06:00:59;6.05;;;0.50;;
56477;SDS011;42382;53.210;5.772;2023-02-28T06:03:26;8.95;;;1.02;;
56477;SDS011;42382;53.210;5.772;2023-02-28T06:05:52;12.13;;;0.70;;
56477;SDS011;42382;53.210;5.772;2023-02-28T06:08:18;8.88;;;0.75;;
56477;SDS011;42382;53.210;5.772;2023-02-28T06:10:44;11.02;;;1.65;;
56477;SDS011;42382;53.210;5.772;2023-02-28T06:13:10;9.15;;;0.70;;
56477;SDS011;42382;53.210;5.772;2023-02-28T06:15:36;6.85;;;0.60;;
56477;SDS011;42382;53.210;5.772;2023-02-28T06:18:03;10.68;;;0.85;;
56477;SDS011;42382;53.210;5.772;2023-02-28T06:20:29;4.10;;;0.57;;
56477;SDS011;42382;53.210;5.772;2023-02-28T06:22:55;9.23;;;0.88;;
56477;SDS011;42382;53.210;5.772;2023-02-28T06:25:23;8.02;;;0.55;;
56477;SDS011;42382;53.210;5.772;2023-02-28T06:27:50;17.00;;;1.25;;
56477;SDS011;42382;53.210;5.772;2023-02-28T06:30:15;11.65;;;1.52;;
56477;SDS011;42382;53.210;5.772;2023-02-28T06:32:41;5.88;;;2.70;;
56477;SDS011;42382;53.210;5.772;2023-02-28T06:35:07;8.07;;;3.65;;
56477;SDS011;42382;53.210;5.772;2023-02-28T06:37:33;6.60;;;3.75;;
56477;SDS011;42382;53.210;5.772;2023-02-28T06:39:58;5.88;;;3.90;;
56477;SDS011;42382;53.210;5.772;2023-02-28T06:42:24;6.07;;;4.15;;
56477;SDS011;42382;53.210;5.772;2023-02-28T06:44:55;7.18;;;3.83;;
56477;SDS011;42382;53.210;5.772;2023-02-28T06:47:21;7.43;;;4.13;;
56477;SDS011;42382;53.210;5.772;2023-02-28T06:49:47;6.55;;;3.95;;
56477;SDS011;42382;53.210;5.772;2023-02-28T06:52:13;6.13;;;3.67;;
56477;SDS011;42382;53.210;5.772;2023-02-28T06:54:39;6.80;;;3.63;;
56477;SDS011;42382;53.210;5.772;2023-02-28T06:57:05;6.57;;;3.70;;
56477;SDS011;42382;53.210;5.772;2023-02-28T06:59:30;5.45;;;3.58;;
56477;SDS011;42382;53.210;5.772;2023-02-28T07:01:56;6.10;;;3.83;;
56477;SDS011;42382;53.210;5.772;2023-02-28T07:04:21;10.63;;;6.88;;
56477;SDS011;42382;53.210;5.772;2023-02-28T07:06:47;7.28;;;3.97;;
56477;SDS011;42382;53.210;5.772;2023-02-28T07:09:13;7.47;;;4.53;;
56477;SDS011;42382;53.210;5.772;2023-02-28T07:11:39;5.35;;;4.18;;
56477;SDS011;42382;53.210;5.772;2023-02-28T07:14:05;6.07;;;4.72;;
56477;SDS011;42382;53.210;5.772;2023-02-28T07:16:31;6.88;;;4.18;;
56477;SDS011;42382;53.210;5.772;2023-02-28T07:18:57;5.78;;;4.43;;
56477;SDS011;42382;53.210;5.772;2023-02-28T07:21:23;6.30;;;5.10;;
56477;SDS011;42382;53.210;5.772;2023-02-28T07:23:48;8.20;;;5.25;;
56477;SDS011;42382;53.210;5.772;2023-02-28T07:26:16;7.75;;;5.05;;
56477;SDS011;42382;53.210;5.772;2023-02-28T07:28:43;8.50;;;5.88;;
56477;SDS011;42382;53.210;5.772;2023-02-28T07:31:10;8.23;;;6.18;;
56477;SDS011;42382;53.210;5.772;2023-02-28T07:33:36;10.27;;;6.50;;
56477;SDS011;42382;53.210;5.772;2023-02-28T07:36:03;11.05;;;7.13;;
56477;SDS011;42382;53.210;5.772;2023-02-28T07:38:30;12.43;;;7.65;;
56477;SDS011;42382;53.210;5.772;2023-02-28T07:40:58;9.80;;;7.25;;
56477;SDS011;42382;53.210;5.772;2023-02-28T07:43:24;10.55;;;7.07;;
56477;SDS011;42382;53.210;5.772;2023-02-28T07:45:49;10.32;;;7.22;;
56477;SDS011;42382;53.210;5.772;2023-02-28T07:48:15;10.43;;;7.40;;
56477;SDS011;42382;53.210;5.772;2023-02-28T07:50:41;10.93;;;7.55;;
56477;SDS011;42382;53.210;5.772;2023-02-28T07:53:06;10.18;;;7.80;;
56477;SDS011;42382;53.210;5.772;2023-02-28T07:55:32;10.82;;;7.72;;
56477;SDS011;42382;53.210;5.772;2023-02-28T07:57:57;11.07;;;8.18;;
56477;SDS011;42382;53.210;5.772;2023-02-28T08:00:23;13.23;;;7.97;;
56477;SDS011;42382;53.210;5.772;2023-02-28T08:02:49;11.88;;;8.20;;
56477;SDS011;42382;53.210;5.772;2023-02-28T08:05:16;11.05;;;7.88;;
56477;SDS011;42382;53.210;5.772;2023-02-28T08:07:42;10.82;;;8.05;;
56477;SDS011;42382;53.210;5.772;2023-02-28T08:10:08;10.60;;;8.15;;
56477;SDS011;42382;53.210;5.772;2023-02-28T08:12:35;11.73;;;8.75;;
56477;SDS011;42382;53.210;5.772;2023-02-28T08:15:00;11.75;;;9.05;;
56477;SDS011;42382;53.210;5.772;2023-02-28T08:17:26;12.88;;;9.13;;
56477;SDS011;42382;53.210;5.772;2023-02-28T08:19:52;12.63;;;9.65;;
56477;SDS011;42382;53.210;5.772;2023-02-28T08:22:17;13.48;;;8.95;;
56477;SDS011;42382;53.210;5.772;2023-02-28T08:24:43;12.65;;;9.73;;
56477;SDS011;42382;53.210;5.772;2023-02-28T08:27:09;13.48;;;9.13;;
56477;SDS011;42382;53.210;5.772;2023-02-28T08:29:36;15.20;;;9.98;;
56477;SDS011;42382;53.210;5.772;2023-02-28T08:32:03;14.60;;;10.48;;
56477;SDS011;42382;53.210;5.772;2023-02-28T08:34:29;14.30;;;10.07;;
56477;SDS011;42382;53.210;5.772;2023-02-28T08:36:55;13.63;;;9.40;;
56477;SDS011;42382;53.210;5.772;2023-02-28T08:39:21;14.60;;;10.35;;
56477;SDS011;42382;53.210;5.772;2023-02-28T08:41:46;15.68;;;10.38;;
56477;SDS011;42382;53.210;5.772;2023-02-28T08:44:12;13.38;;;9.88;;
56477;SDS011;42382;53.210;5.772;2023-02-28T08:46:38;16.13;;;10.52;;
56477;SDS011;42382;53.210;5.772;2023-02-28T08:49:04;14.48;;;10.75;;
56477;SDS011;42382;53.210;5.772;2023-02-28T08:51:29;18.02;;;10.20;;
56477;SDS011;42382;53.210;5.772;2023-02-28T08:53:57;15.88;;;11.00;;
56477;SDS011;42382;53.210;5.772;2023-02-28T08:56:25;17.85;;;12.32;;
56477;SDS011;42382;53.210;5.772;2023-02-28T08:58:52;16.08;;;11.65;;
56477;SDS011;42382;53.210;5.772;2023-02-28T09:01:21;17.08;;;12.32;;
56477;SDS011;42382;53.210;5.772;2023-02-28T09:03:49;16.52;;;11.55;;
56477;SDS011;42382;53.210;5.772;2023-02-28T09:06:15;18.73;;;11.88;;
56477;SDS011;42382;53.210;5.772;2023-02-28T09:08:42;19.77;;;11.73;;
56477;SDS011;42382;53.210;5.772;2023-02-28T09:11:09;16.65;;;11.25;;
56477;SDS011;42382;53.210;5.772;2023-02-28T09:13:35;15.50;;;10.93;;
56477;SDS011;42382;53.210;5.772;2023-02-28T09:16:02;14.68;;;10.50;;
56477;SDS011;42382;53.210;5.772;2023-02-28T09:18:29;14.73;;;10.10;;
56477;SDS011;42382;53.210;5.772;2023-02-28T09:20:55;14.93;;;11.30;;
56477;SDS011;42382;53.210;5.772;2023-02-28T09:23:22;15.68;;;11.45;;
56477;SDS011;42382;53.210;5.772;2023-02-28T09:25:50;22.67;;;14.65;;
56477;SDS011;42382;53.210;5.772;2023-02-28T09:28:17;15.98;;;11.55;;
56477;SDS011;42382;53.210;5.772;2023-02-28T09:30:44;16.15;;;12.30;;
56477;SDS011;42382;53.210;5.772;2023-02-28T09:33:12;15.98;;;10.30;;
56477;SDS011;42382;53.210;5.772;2023-02-28T09:35:38;14.23;;;11.02;;
56477;SDS011;42382;53.210;5.772;2023-02-28T09:38:04;12.38;;;9.15;;
56477;SDS011;42382;53.210;5.772;2023-02-28T09:40:30;17.85;;;12.30;;
56477;SDS011;42382;53.210;5.772;2023-02-28T09:42:57;14.77;;;9.98;;
56477;SDS011;42382;53.210;5.772;2023-02-28T09:45:40;12.10;;;9.77;;
56477;SDS011;42382;53.210;5.772;2023-02-28T09:48:12;15.10;;;9.68;;
56477;SDS011;42382;53.210;5.772;2023-02-28T09:50:41;15.35;;;10.65;;
56477;SDS011;42382;53.210;5.772;2023-02-28T09:55:53;13.82;;;10.35;;
56477;SDS011;42382;53.210;5.772;2023-02-28T09:58:26;12.55;;;9.25;;
56477;SDS011;42382;53.210;5.772;2023-02-28T10:01:02;12.70;;;9.07;;
56477;SDS011;42382;53.210;5.772;2023-02-28T10:03:40;11.65;;;8.45;;
56477;SDS011;42382;53.210;5.772;2023-02-28T10:06:13;11.65;;;8.05;;
56477;SDS011;42382;53.210;5.772;2023-02-28T10:08:45;12.35;;;8.98;;
56477;SDS011;42382;53.210;5.772;2023-02-28T10:11:21;11.20;;;8.45;;
56477;SDS011;42382;53.210;5.772;2023-02-28T10:13:59;11.80;;;8.40;;
56477;SDS011;42382;53.210;5.772;2023-02-28T10:16:36;11.40;;;8.43;;
56477;SDS011;42382;53.210;5.772;2023-02-28T10:19:15;10.43;;;8.05;;
56477;SDS011;42382;53.210;5.772;2023-02-28T10:21:46;12.77;;;7.47;;
56477;SDS011;42382;53.210;5.772;2023-02-28T10:24:19;10.68;;;7.80;;
56477;SDS011;42382;53.210;5.772;2023-02-28T10:29:20;10.35;;;6.25;;
56477;SDS011;42382;53.210;5.772;2023-02-28T10:31:46;11.63;;;7.88;;
56477;SDS011;42382;53.210;5.772;2023-02-28T10:34:12;11.50;;;6.68;;
56477;SDS011;42382;53.210;5.772;2023-02-28T10:36:38;9.30;;;5.93;;
56477;SDS011;42382;53.210;5.772;2023-02-28T10:39:33;10.15;;;6.25;;
56477;SDS011;42382;53.210;5.772;2023-02-28T10:42:29;11.15;;;6.43;;
56477;SDS011;42382;53.210;5.772;2023-02-28T10:47:30;7.78;;;5.80;;
56477;SDS011;42382;53.210;5.772;2023-02-28T10:49:57;8.18;;;5.22;;
56477;SDS011;42382;53.210;5.772;2023-02-28T10:52:39;7.90;;;5.68;;
56477;SDS011;42382;53.210;5.772;2023-02-28T10:55:15;9.43;;;5.03;;
56477;SDS011;42382;53.210;5.772;2023-02-28T10:57:50;7.13;;;4.47;;
56477;SDS011;42382;53.210;5.772;2023-02-28T11:00:18;8.18;;;4.25;;
56477;SDS011;42382;53.210;5.772;2023-02-28T11:20:23;5.57;;;3.13;;
56477;SDS011;42382;53.210;5.772;2023-02-28T11:22:52;5.72;;;4.00;;
56477;SDS011;42382;53.210;5.772;2023-02-28T11:25:33;5.15;;;3.13;;
56477;SDS011;42382;53.210;5.772;2023-02-28T11:28:45;4.95;;;2.67;;
56477;SDS011;42382;53.210;5.772;2023-02-28T11:31:00;4.40;;;2.90;;
56477;SDS011;42382;53.210;5.772;2023-02-28T11:33:32;4.30;;;2.63;;
56477;SDS011;42382;53.210;5.772;2023-02-28T11:38:52;4.32;;;2.85;;
56477;SDS011;42382;53.210;5.772;2023-02-28T11:41:23;5.93;;;2.75;;
56477;SDS011;42382;53.210;5.772;2023-02-28T11:46:45;4.80;;;2.53;;
56477;SDS011;42382;53.210;5.772;2023-02-28T12:00:02;3.33;;;2.38;;
56477;SDS011;42382;53.210;5.772;2023-02-28T12:02:44;3.78;;;2.30;;
56477;SDS011;42382;53.210;5.772;2023-02-28T12:08:15;2.60;;;1.95;;
56477;SDS011;42382;53.210;5.772;2023-02-28T12:11:06;4.50;;;1.83;;
56477;SDS011;42382;53.210;5.772;2023-02-28T12:22:02;3.20;;;1.50;;
56477;SDS011;42382;53.210;5.772;2023-02-28T12:27:21;3.35;;;1.90;;
56477;SDS011;42382;53.210;5.772;2023-02-28T12:29:51;2.78;;;1.77;;
56477;SDS011;42382;53.210;5.772;2023-02-28T12:32:23;2.30;;;1.58;;
56477;SDS011;42382;53.210;5.772;2023-02-28T12:34:57;2.83;;;1.52;;
56477;SDS011;42382;53.210;5.772;2023-02-28T12:37:38;3.60;;;1.88;;
56477;SDS011;42382;53.210;5.772;2023-02-28T12:40:20;3.47;;;1.63;;
56477;SDS011;42382;53.210;5.772;2023-02-28T12:42:49;2.50;;;1.65;;
56477;SDS011;42382;53.210;5.772;2023-02-28T12:45:27;4.50;;;2.40;;
56477;SDS011;42382;53.210;5.772;2023-02-28T12:55:53;4.35;;;2.45;;
56477;SDS011;42382;53.210;5.772;2023-02-28T13:06:32;5.07;;;2.42;;
56477;SDS011;42382;53.210;5.772;2023-02-28T13:09:08;4.35;;;2.20;;
56477;SDS011;42382;53.210;5.772;2023-02-28T13:11:44;5.22;;;2.40;;
56477;SDS011;42382;53.210;5.772;2023-02-28T13:47:29;6.95;;;2.75;;
56477;SDS011;42382;53.210;5.772;2023-02-28T14:29:36;4.20;;;2.60;;
56477;SDS011;42382;53.210;5.772;2023-02-28T14:35:05;6.22;;;2.83;;
56477;SDS011;42382;53.210;5.772;2023-02-28T14:37:51;4.75;;;2.63;;
56477;SDS011;42382;53.210;5.772;2023-02-28T14:40:29;4.85;;;2.33;;
56477;SDS011;42382;53.210;5.772;2023-02-28T14:42:59;6.22;;;2.78;;
56477;SDS011;42382;53.210;5.772;2023-02-28T14:45:27;3.97;;;2.08;;
56477;SDS011;42382;53.210;5.772;2023-02-28T14:55:18;4.15;;;2.17;;
56477;SDS011;42382;53.210;5.772;2023-02-28T14:57:58;7.57;;;3.00;;
56477;SDS011;42382;53.210;5.772;2023-02-28T15:00:47;4.65;;;2.53;;
56477;SDS011;42382;53.210;5.772;2023-02-28T15:03:24;3.40;;;2.58;;
56477;SDS011;42382;53.210;5.772;2023-02-28T15:06:02;5.05;;;2.65;;
56477;SDS011;42382;53.210;5.772;2023-02-28T15:08:30;6.67;;;2.90;;
56477;SDS011;42382;53.210;5.772;2023-02-28T15:16:22;3.90;;;2.42;;
56477;SDS011;42382;53.210;5.772;2023-02-28T15:18:52;4.30;;;2.42;;
56477;SDS011;42382;53.210;5.772;2023-02-28T15:21:23;4.20;;;2.40;;
56477;SDS011;42382;53.210;5.772;2023-02-28T15:23:54;5.03;;;3.28;;
56477;SDS011;42382;53.210;5.772;2023-02-28T15:26:29;5.88;;;2.75;;
56477;SDS011;42382;53.210;5.772;2023-02-28T15:28:59;3.20;;;2.45;;
56477;SDS011;42382;53.210;5.772;2023-02-28T15:31:27;5.72;;;2.65;;
56477;SDS011;42382;53.210;5.772;2023-02-28T15:34:05;4.93;;;2.67;;
56477;SDS011;42382;53.210;5.772;2023-02-28T15:36:32;3.92;;;2.90;;
56477;SDS011;42382;53.210;5.772;2023-02-28T15:39:02;4.40;;;3.17;;
56477;SDS011;42382;53.210;5.772;2023-02-28T15:41:43;6.75;;;3.75;;
56477;SDS011;42382;53.210;5.772;2023-02-28T15:44:23;5.75;;;3.67;;
56477;SDS011;42382;53.210;5.772;2023-02-28T15:51:50;6.60;;;4.18;;
56477;SDS011;42382;53.210;5.772;2023-02-28T15:54:24;5.05;;;4.03;;
56477;SDS011;42382;53.210;5.772;2023-02-28T15:56:55;7.93;;;4.60;;
56477;SDS011;42382;53.210;5.772;2023-02-28T15:59:26;7.53;;;4.47;;
56477;SDS011;42382;53.210;5.772;2023-02-28T16:02:04;5.90;;;4.22;;
56477;SDS011;42382;53.210;5.772;2023-02-28T16:07:37;8.82;;;4.75;;
56477;SDS011;42382;53.210;5.772;2023-02-28T16:10:04;5.57;;;4.20;;
56477;SDS011;42382;53.210;5.772;2023-02-28T16:12:32;10.50;;;4.68;;
56477;SDS011;42382;53.210;5.772;2023-02-28T16:15:00;8.60;;;4.93;;
56477;SDS011;42382;53.210;5.772;2023-02-28T16:17:34;6.95;;;4.38;;
56477;SDS011;42382;53.210;5.772;2023-02-28T16:20:05;6.32;;;4.75;;
56477;SDS011;42382;53.210;5.772;2023-02-28T16:22:45;8.05;;;4.03;;
56477;SDS011;42382;53.210;5.772;2023-02-28T16:25:11;7.05;;;4.50;;
56477;SDS011;42382;53.210;5.772;2023-02-28T16:27:42;6.25;;;4.35;;
56477;SDS011;42382;53.210;5.772;2023-02-28T16:30:15;6.85;;;4.30;;
56477;SDS011;42382;53.210;5.772;2023-02-28T16:32:45;6.30;;;4.40;;
56477;SDS011;42382;53.210;5.772;2023-02-28T16:37:36;6.97;;;4.75;;
56477;SDS011;42382;53.210;5.772;2023-02-28T16:40:02;5.63;;;4.00;;
56477;SDS011;42382;53.210;5.772;2023-02-28T16:42:28;7.68;;;5.03;;
56477;SDS011;42382;53.210;5.772;2023-02-28T16:44:56;8.18;;;5.25;;
56477;SDS011;42382;53.210;5.772;2023-02-28T16:47:23;6.83;;;4.50;;
56477;SDS011;42382;53.210;5.772;2023-02-28T16:49:49;6.93;;;4.82;;
56477;SDS011;42382;53.210;5.772;2023-02-28T16:52:14;9.65;;;5.25;;
56477;SDS011;42382;53.210;5.772;2023-02-28T16:54:40;6.90;;;5.05;;
56477;SDS011;42382;53.210;5.772;2023-02-28T16:57:08;16.42;;;8.15;;
56477;SDS011;42382;53.210;5.772;2023-02-28T16:59:46;13.57;;;7.97;;
56477;SDS011;42382;53.210;5.772;2023-02-28T18:32:50;8.23;;;5.97;;
56477;SDS011;42382;53.210;5.772;2023-02-28T18:35:16;9.10;;;6.47;;
56477;SDS011;42382;53.210;5.772;2023-02-28T18:37:58;13.18;;;8.23;;
56477;SDS011;42382;53.210;5.772;2023-02-28T18:40:27;16.85;;;10.73;;
56477;SDS011;42382;53.210;5.772;2023-02-28T18:42:52;15.90;;;10.20;;
56477;SDS011;42382;53.210;5.772;2023-02-28T18:45:18;23.48;;;14.30;;
56477;SDS011;42382;53.210;5.772;2023-02-28T18:47:43;18.00;;;12.48;;
56477;SDS011;42382;53.210;5.772;2023-02-28T18:50:09;14.13;;;9.25;;
56477;SDS011;42382;53.210;5.772;2023-02-28T18:52:36;14.25;;;8.73;;
56477;SDS011;42382;53.210;5.772;2023-02-28T18:55:03;12.90;;;8.23;;
56477;SDS011;42382;53.210;5.772;2023-02-28T18:57:31;11.88;;;8.27;;
56477;SDS011;42382;53.210;5.772;2023-02-28T18:59:57;11.13;;;7.18;;
56477;SDS011;42382;53.210;5.772;2023-02-28T19:02:23;9.68;;;6.75;;
56477;SDS011;42382;53.210;5.772;2023-02-28T19:04:48;9.02;;;6.90;;
56477;SDS011;42382;53.210;5.772;2023-02-28T19:07:14;10.43;;;7.10;;
56477;SDS011;42382;53.210;5.772;2023-02-28T19:09:39;11.30;;;7.70;;
56477;SDS011;42382;53.210;5.772;2023-02-28T19:12:05;13.38;;;7.68;;
56477;SDS011;42382;53.210;5.772;2023-02-28T19:14:31;12.00;;;7.43;;
56477;SDS011;42382;53.210;5.772;2023-02-28T19:16:56;12.13;;;8.55;;
56477;SDS011;42382;53.210;5.772;2023-02-28T19:19:22;13.88;;;8.73;;
56477;SDS011;42382;53.210;5.772;2023-02-28T19:21:47;18.67;;;10.57;;
56477;SDS011;42382;53.210;5.772;2023-02-28T19:24:13;13.18;;;8.68;;
56477;SDS011;42382;53.210;5.772;2023-02-28T19:26:39;13.70;;;9.82;;
56477;SDS011;42382;53.210;5.772;2023-02-28T19:29:04;14.95;;;9.25;;
56477;SDS011;42382;53.210;5.772;2023-02-28T19:31:30;15.68;;;10.00;;
56477;SDS011;42382;53.210;5.772;2023-02-28T19:33:56;16.42;;;9.68;;
56477;SDS011;42382;53.210;5.772;2023-02-28T19:36:21;14.75;;;9.70;;
56477;SDS011;42382;53.210;5.772;2023-02-28T19:38:47;14.05;;;10.32;;
56477;SDS011;42382;53.210;5.772;2023-02-28T19:41:14;16.30;;;11.20;;
56477;SDS011;42382;53.210;5.772;2023-02-28T19:43:41;20.60;;;17.70;;
56477;SDS011;42382;53.210;5.772;2023-02-28T19:46:06;19.27;;;16.40;;
56477;SDS011;42382;53.210;5.772;2023-02-28T19:48:33;19.85;;;15.30;;
56477;SDS011;42382;53.210;5.772;2023-02-28T19:51:00;17.17;;;12.35;;